Time;durP1;ratioP1;P1;durP2;ratioP2;P2;SDS_P1;SDS_P2;PMS_P1;PMS_P2;Temp;Humidity;BMP_temperature;BMP_pressure;BME280_temperature;BME280_humidity;BME280_pressure;Samples;Min_cycle;Max_cycle;Signal;HPM_P1;HPM_P2
2022/07/30 00:00:15;;;;;;;6.88;2.58;;;;;;;21.81;40.68;100927.56;7393395;19;20014;-70
2022/07/30 00:02:43;;;;;;;4.45;2.25;;;;;;;21.79;40.51;100916.13;7392930;19;20484;-70
2022/07/30 00:05:12;;;;;;;9.05;5.22;;;;;;;21.77;40.60;100913.56;7392945;19;20007;-70
2022/07/30 00:07:41;;;;;;;5.45;1.90;;;;;;;21.77;40.81;100916.25;7393482;19;20085;-70
2022/07/30 00:10:12;;;;;;;5.15;2.40;;;;;;;21.79;40.22;100918.81;7392490;19;20035;-69
2022/07/30 00:12:41;;;;;;;7.63;3.10;;;;;;;21.77;40.59;100920.72;7393460;19;20039;-69
2022/07/30 00:15:11;;;;;;;8.85;3.90;;;;;;;21.76;41.01;100919.88;7394317;19;20023;-70
2022/07/30 00:17:39;;;;;;;8.63;2.42;;;;;;;21.75;40.78;100922.63;7393178;19;20029;-70
2022/07/30 00:20:08;;;;;;;4.80;2.20;;;;;;;;;;7392371;19;20489;-70
2022/07/30 00:22:37;;;;;;;4.53;1.80;;;;;;;21.73;41.13;100919.22;7394535;19;20018;-70
2022/07/30 00:25:06;;;;;;;3.72;2.67;;;;;;;21.71;40.78;100911.31;7392651;19;20018;-70
2022/07/30 00:27:37;;;;;;;7.93;2.33;;;;;;;21.69;41.02;100907.88;7392869;19;20074;-70
2022/07/30 00:30:07;;;;;;;5.53;2.20;;;;;;;21.67;41.41;100903.59;7394008;19;20502;-70
2022/07/30 00:32:35;;;;;;;3.40;1.90;;;;;;;21.66;41.49;100909.88;7396722;19;20517;-71
2022/07/30 00:35:04;;;;;;;5.78;2.92;;;;;;;21.62;40.96;100907.44;7399013;19;20104;-70
2022/07/30 00:37:32;;;;;;;4.70;2.25;;;;;;;21.59;41.08;100915.63;7398696;19;20022;-70
2022/07/30 00:40:01;;;;;;;4.55;2.05;;;;;;;21.57;41.59;100912.22;7398833;19;20123;-69
2022/07/30 00:42:42;;;;;;;3.22;1.77;;;;;;;21.54;41.24;100908.84;7398594;19;20024;-70
2022/07/30 00:45:12;;;;;;;4.65;2.08;;;;;;;21.49;41.79;100911.81;7401503;19;20379;-70
2022/07/30 00:47:41;;;;;;;5.25;2.00;;;;;;;21.48;41.69;100912.78;7398077;19;20031;-71
2022/07/30 00:50:12;;;;;;;4.05;2.55;;;;;;;21.46;41.58;100912.88;7400392;19;20537;-70
2022/07/30 00:52:41;;;;;;;4.30;2.33;;;;;;;21.43;41.60;100906.88;7400706;19;20552;-69
2022/07/30 00:55:13;;;;;;;5.80;2.15;;;;;;;21.39;41.88;100897.38;7398294;19;20107;-70
2022/07/30 00:57:44;;;;;;;3.05;1.75;;;;;;;21.37;42.29;100901.94;7397918;19;20085;-69
2022/07/30 01:00:17;;;;;;;8.48;2.25;;;;;;;21.34;41.88;100900.31;7397926;19;20028;-68
2022/07/30 01:02:46;;;;;;;2.97;2.00;;;;;;;21.32;42.01;100904.91;7397950;19;20031;-70
2022/07/30 01:05:15;;;;;;;4.88;1.80;;;;;;;21.27;42.14;100897.19;7398151;19;20014;-69
2022/07/30 01:07:44;;;;;;;3.58;1.92;;;;;;;21.27;42.57;100901.69;7398398;19;20073;-68
2022/07/30 01:10:14;;;;;;;3.13;1.95;;;;;;;21.24;42.56;100897.38;7400319;19;20014;-68
2022/07/30 01:12:54;;;;;;;4.78;1.95;;;;;;;21.22;42.50;100893.97;7398588;19;20023;-68
2022/07/30 01:15:23;;;;;;;6.18;2.35;;;;;;;21.19;42.58;100891.47;7398341;19;20363;-70
2022/07/30 01:17:53;;;;;;;9.70;1.98;;;;;;;21.18;42.48;100896.94;7397415;19;20453;-68
2022/07/30 01:20:28;;;;;;;3.83;2.10;;;;;;;21.16;42.72;100889.03;7400703;19;20010;-68
2022/07/30 01:23:06;;;;;;;5.80;2.72;;;;;;;21.14;42.74;100905.16;7397344;19;20488;-68
2022/07/30 01:25:55;;;;;;;3.25;1.77;;;;;;;21.12;42.76;100898.19;7398028;19;20018;-68
2022/07/30 01:28:27;;;;;;;4.88;1.85;;;;;;;21.08;43.14;100891.31;7399764;19;20513;-69
2022/07/30 01:30:57;;;;;;;2.50;2.05;;;;;;;21.06;43.35;100895.91;7400388;19;20022;-69
2022/07/30 01:33:27;;;;;;;3.65;1.90;;;;;;;21.02;43.42;100900.59;7397956;19;20427;-69
2022/07/30 01:35:58;;;;;;;4.32;1.70;;;;;;;20.99;43.16;100904.31;7399213;19;20382;-69
2022/07/30 01:38:29;;;;;;;3.55;1.83;;;;;;;20.96;43.52;100909.81;7400175;19;20024;-69
2022/07/30 01:41:00;;;;;;;2.70;1.73;;;;;;;20.92;43.57;100921.63;7400001;19;20019;-69
2022/07/30 01:43:32;;;;;;;3.65;1.73;;;;;;;20.89;43.78;100929.84;7399026;19;20525;-69
2022/07/30 01:46:02;;;;;;;7.63;2.30;;;;;;;20.83;43.83;100927.56;7399173;19;20032;-69
2022/07/30 01:48:33;;;;;;;3.60;1.90;;;;;;;20.77;43.70;100918.09;7399084;19;20376;-69
2022/07/30 01:51:05;;;;;;;5.35;2.10;;;;;;;20.71;44.01;100915.81;7397431;19;20035;-69
2022/07/30 01:53:38;;;;;;;4.13;1.92;;;;;;;20.64;44.08;100917.13;7396642;19;20014;-69
2022/07/30 01:56:11;;;;;;;5.35;1.83;;;;;;;20.58;44.23;100918.34;7398333;19;20030;-69
2022/07/30 01:58:41;;;;;;;6.15;1.80;;;;;;;20.53;44.62;100919.59;7399604;19;20031;-69
2022/07/30 02:01:10;;;;;;;6.43;2.22;;;;;;;20.49;44.64;100924.25;7396710;19;20027;-69
2022/07/30 02:03:38;;;;;;;5.43;2.00;;;;;;;20.45;44.43;100914.75;7396561;19;20026;-69
2022/07/30 02:06:15;;;;;;;4.15;1.80;;;;;;;20.39;44.95;100923.09;7398014;19;20074;-69
2022/07/30 02:08:47;;;;;;;3.28;1.98;;;;;;;20.34;44.92;100920.69;7399140;19;20031;-69
2022/07/30 02:12:27;;;;;;;6.68;1.98;;;;;;;20.31;45.12;100929.75;7397909;19;20015;-69
2022/07/30 02:14:13;;;;;;;5.82;2.35;;;;;;;20.30;45.16;100916.50;7397965;19;20015;-68
2022/07/30 02:16:44;;;;;;;4.03;2.08;;;;;;;20.27;45.07;100917.56;7397817;19;20027;-69
2022/07/30 02:19:16;;;;;;;6.88;2.35;;;;;;;20.22;45.55;100909.00;7396533;19;20023;-69
2022/07/30 02:21:49;;;;;;;3.22;1.98;;;;;;;20.17;45.79;100908.41;7397970;19;20497;-70
2022/07/30 02:24:21;;;;;;;4.85;2.13;;;;;;;20.19;45.56;100914.47;7398691;19;20031;-69
2022/07/30 02:26:57;;;;;;;5.80;1.80;;;;;;;20.17;45.69;100917.25;7396175;19;20023;-69
2022/07/30 02:29:26;;;;;;;6.45;2.30;;;;;;;20.16;45.76;100915.53;7395655;19;20015;-69
2022/07/30 02:31:57;;;;;;;6.63;2.30;;;;;;;20.14;45.88;100912.13;7397931;19;20014;-69
2022/07/30 02:34:27;;;;;;;4.82;2.00;;;;;;;20.13;45.79;100904.19;7396274;19;20015;-69
2022/07/30 02:36:57;;;;;;;6.38;2.00;;;;;;;20.13;46.25;100909.50;7396533;19;20019;-69
2022/07/30 02:39:27;;;;;;;4.40;2.33;;;;;;;20.11;45.84;100914.94;7395655;19;20387;-69
2022/07/30 02:41:59;;;;;;;4.25;2.22;;;;;;;20.10;46.48;100915.88;7395392;19;20485;-69
2022/07/30 02:44:31;;;;;;;5.35;2.30;;;;;;;20.07;46.61;100912.53;7398063;19;20031;-69
2022/07/30 02:47:00;;;;;;;4.07;2.75;;;;;;;20.03;46.57;100919.88;7395928;19;20031;-69
2022/07/30 02:49:34;;;;;;;4.82;2.28;;;;;;;19.98;47.01;100916.59;7395181;19;20031;-69
2022/07/30 02:52:04;;;;;;;4.82;2.13;;;;;;;19.94;46.77;100917.72;7397769;19;20365;-69
2022/07/30 02:54:34;;;;;;;4.88;2.38;;;;;;;19.90;47.10;100909.06;7396954;19;20022;-70
2022/07/30 02:57:07;;;;;;;9.48;2.33;;;;;;;19.89;47.11;100911.81;7395496;19;20414;-69
2022/07/30 02:59:37;;;;;;;5.00;2.47;;;;;;;19.86;47.49;100921.69;7395375;19;20414;-69
2022/07/30 03:02:08;;;;;;;5.03;2.20;;;;;;;19.85;47.55;100917.34;7396661;19;20019;-69
2022/07/30 03:04:38;;;;;;;5.25;2.17;;;;;;;19.84;47.33;100915.63;7394768;19;20010;-69
2022/07/30 03:07:08;;;;;;;4.72;2.00;;;;;;;19.81;47.42;100914.91;7394551;19;20501;-69
2022/07/30 03:09:38;;;;;;;6.32;2.15;;;;;;;19.78;48.05;100915.94;7394902;19;20497;-69
2022/07/30 03:12:11;;;;;;;4.50;1.85;;;;;;;19.76;47.64;100911.66;7395279;19;20011;-69
2022/07/30 03:14:40;;;;;;;3.60;2.15;;;;;;;19.75;47.98;100909.94;7394589;19;20014;-69
2022/07/30 03:17:10;;;;;;;4.72;2.25;;;;;;;19.74;48.15;100909.09;7394925;19;20383;-69
2022/07/30 03:19:40;;;;;;;4.72;2.35;;;;;;;19.74;48.08;100908.22;7396409;19;20070;-69
2022/07/30 03:22:10;;;;;;;4.55;2.60;;;;;;;19.72;47.89;100915.44;7396272;19;20029;-69
2022/07/30 03:24:41;;;;;;;4.68;2.72;;;;;;;19.70;48.16;100916.38;7396636;19;20019;-69
2022/07/30 03:27:13;;;;;;;3.97;2.30;;;;;;;19.69;48.09;100916.47;7393997;19;20030;-69
2022/07/30 03:29:45;;;;;;;5.28;2.22;;;;;;;19.64;48.19;100906.09;7394106;19;20405;-69
2022/07/30 03:32:14;;;;;;;8.80;2.90;;;;;;;19.65;48.75;100913.13;7395496;19;20014;-69
2022/07/30 03:34:44;;;;;;;4.70;2.13;;;;;;;19.63;48.39;100915.00;7395164;19;20492;-69
2022/07/30 03:37:20;;;;;;;5.47;2.45;;;;;;;19.61;48.70;100918.72;7393472;19;20019;-69
2022/07/30 03:39:49;;;;;;;3.67;2.50;;;;;;;19.56;48.96;100923.44;7395650;19;20389;-69
2022/07/30 03:42:20;;;;;;;5.40;2.10;;;;;;;19.50;49.22;100916.69;7395539;19;20026;-69
2022/07/30 03:44:49;;;;;;;7.38;2.78;;;;;;;19.44;49.15;100915.19;7395681;19;20032;-69
2022/07/30 03:47:19;;;;;;;5.53;1.90;;;;;;;19.39;49.59;100919.94;7393453;19;20439;-69
2022/07/30 03:49:47;;;;;;;2.80;1.83;;;;;;;19.35;49.34;100924.56;7395151;19;20489;-70
2022/07/30 03:52:17;;;;;;;6.53;2.30;;;;;;;19.29;49.26;100926.72;7393668;19;20022;-70
2022/07/30 03:54:47;;;;;;;3.20;1.95;;;;;;;19.24;49.81;100926.09;7395359;19;20014;-69
2022/07/30 03:57:16;;;;;;;5.78;2.28;;;;;;;19.17;49.52;100920.25;7392933;19;20376;-69
2022/07/30 03:59:50;;;;;;;2.90;2.33;;;;;;;19.10;49.53;100927.72;7395186;19;20018;-69
2022/07/30 04:02:19;;;;;;;4.32;2.22;;;;;;;19.04;49.86;100928.91;7393801;19;20041;-69
2022/07/30 04:04:47;;;;;;;4.45;2.60;;;;;;;19.01;49.78;100929.06;7394697;19;20426;-70
2022/07/30 04:07:16;;;;;;;5.57;2.50;;;;;;;18.97;50.48;100931.97;7394422;19;20078;-69
2022/07/30 04:09:45;;;;;;;6.38;2.30;;;;;;;18.93;50.15;100933.97;7402299;19;20552;-69
2022/07/30 04:12:14;;;;;;;3.97;2.30;;;;;;;18.91;50.11;100927.00;7399238;19;20023;-69
2022/07/30 04:14:43;;;;;;;6.43;2.55;;;;;;;18.90;50.29;100936.78;7402534;19;20029;-68
2022/07/30 04:17:23;;;;;;;5.72;2.10;;;;;;;18.87;50.30;100935.09;7400218;19;20104;-69
2022/07/30 04:19:55;;;;;;;3.65;2.10;;;;;;;18.86;50.67;100943.16;7399699;19;20024;-68
2022/07/30 04:22:29;;;;;;;4.13;2.30;;;;;;;18.83;50.35;100943.31;7399171;19;20027;-68
2022/07/30 04:24:59;;;;;;;6.20;2.15;;;;;;;18.82;50.40;100950.44;7398766;19;20011;-68
2022/07/30 04:27:27;;;;;;;2.92;2.00;;;;;;;18.81;50.54;100946.06;7399871;19;20019;-70
2022/07/30 04:29:56;;;;;;;7.75;2.58;;;;;;;18.80;50.88;100944.34;7401649;19;20513;-69
2022/07/30 04:32:27;;;;;;;5.93;2.30;;;;;;;18.80;50.56;100944.34;7401948;19;20108;-69
2022/07/30 04:34:57;;;;;;;4.43;2.20;;;;;;;18.79;50.77;100944.41;7401731;19;20502;-69
2022/07/30 04:37:30;;;;;;;4.10;2.40;;;;;;;18.78;50.96;100948.91;7399439;19;20022;-69
2022/07/30 04:39:59;;;;;;;3.47;2.65;;;;;;;18.77;50.70;100948.97;7398845;19;20374;-68
2022/07/30 04:42:28;;;;;;;7.30;2.50;;;;;;;18.79;50.86;100955.06;7398354;19;20020;-69
2022/07/30 04:44:57;;;;;;;7.10;2.30;;;;;;;18.76;50.77;100948.09;7401602;19;20078;-69
2022/07/30 04:47:28;;;;;;;5.03;2.40;;;;;;;18.82;51.12;100954.91;7398957;19;20397;-69
2022/07/30 04:49:58;;;;;;;3.85;2.58;;;;;;;18.83;51.18;100948.63;7399136;19;20022;-69
2022/07/30 04:52:26;;;;;;;5.43;2.30;;;;;;;18.83;51.08;100954.81;7400903;19;20378;-70
2022/07/30 04:54:59;;;;;;;4.25;2.28;;;;;;;18.82;51.03;100947.78;7398629;19;20010;-69
2022/07/30 04:57:29;;;;;;;4.47;2.33;;;;;;;18.83;51.03;100943.31;7398239;19;20131;-69
2022/07/30 04:59:57;;;;;;;4.57;2.53;;;;;;;18.83;51.04;100944.19;7400835;19;20011;-69
2022/07/30 05:02:32;;;;;;;5.45;2.60;;;;;;;18.86;51.47;100948.47;7400931;19;20014;-69
2022/07/30 05:05:02;;;;;;;3.78;2.40;;;;;;;18.85;51.15;100952.06;7397949;19;20418;-69
2022/07/30 05:07:32;;;;;;;3.40;2.15;;;;;;;18.86;51.47;100943.16;7398610;19;20363;-69
2022/07/30 05:10:01;;;;;;;4.20;1.88;;;;;;;18.91;51.30;100946.47;7400456;19;20031;-69
2022/07/30 05:12:36;;;;;;;11.68;7.95;;;;;;;18.94;51.55;100948.94;7398592;19;20006;-69
2022/07/30 05:15:04;;;;;;;5.45;3.63;;;;;;;18.99;51.44;100952.25;7401081;19;20014;-70
2022/07/30 05:17:36;;;;;;;5.93;3.33;;;;;;;19.02;51.37;100954.72;7397579;19;20418;-69
2022/07/30 05:20:05;;;;;;;9.48;6.07;;;;;;;19.07;51.46;100945.63;7397852;19;20339;-69
2022/07/30 05:22:34;;;;;;;8.15;3.50;;;;;;;19.11;51.54;100945.38;7397688;19;20037;-68
2022/07/30 05:25:02;;;;;;;3.35;2.13;;;;;;;19.13;51.54;100950.63;7397623;19;20031;-69
2022/07/30 05:27:31;;;;;;;3.72;2.38;;;;;;;19.12;51.17;100952.44;7398457;19;20108;-69
2022/07/30 05:29:59;;;;;;;5.13;2.83;;;;;;;19.12;51.63;100948.91;7397234;19;20082;-69
2022/07/30 05:32:28;;;;;;;7.32;2.85;;;;;;;19.10;51.45;100951.66;7396861;19;20122;-69
2022/07/30 05:34:59;;;;;;;5.40;2.88;;;;;;;19.09;51.64;100949.06;7397269;19;20026;-69
2022/07/30 05:37:27;;;;;;;4.97;2.35;;;;;;;19.07;51.43;100941.19;7397180;19;20022;-68
2022/07/30 05:39:56;;;;;;;3.30;2.22;;;;;;;19.04;51.91;100939.56;7398921;19;20014;-70
2022/07/30 05:42:24;;;;;;;8.38;2.40;;;;;;;19.07;52.04;100935.00;7398855;19;20018;-69
2022/07/30 05:44:53;;;;;;;4.45;2.20;;;;;;;19.09;52.08;100946.41;7399135;19;20035;-69
2022/07/30 05:47:21;;;;;;;5.28;2.33;;;;;;;19.10;51.98;100940.16;7397834;19;20028;-69
2022/07/30 05:49:50;;;;;;;4.07;2.10;;;;;;;19.10;51.92;100941.00;7396679;19;20007;-69
2022/07/30 05:52:21;;;;;;;4.90;2.30;;;;;;;19.09;51.73;100944.59;7398707;19;20032;-69
2022/07/30 05:54:49;;;;;;;5.15;2.35;;;;;;;19.12;51.95;100943.56;7398679;19;20556;-68
2022/07/30 05:57:18;;;;;;;5.63;2.63;;;;;;;19.14;51.91;100947.88;7397022;19;20036;-69
2022/07/30 05:59:48;;;;;;;2.97;2.15;;;;;;;19.17;51.65;100954.81;7399002;19;20018;-69
2022/07/30 06:02:17;;;;;;;8.52;2.65;;;;;;;19.20;52.00;100954.66;7399288;19;20014;-69
2022/07/30 06:04:45;;;;;;;3.38;2.10;;;;;;;19.24;51.95;100960.69;7396648;19;20011;-69
2022/07/30 06:07:14;;;;;;;4.38;2.53;;;;;;;19.29;51.72;100956.81;7396875;19;20112;-69
2022/07/30 06:09:45;;;;;;;10.18;2.58;;;;;;;19.36;52.08;100960.84;7398631;19;20022;-69
2022/07/30 06:12:13;;;;;;;5.97;2.72;;;;;;;19.41;51.49;100959.75;7396948;19;20070;-69
2022/07/30 06:14:42;;;;;;;4.25;2.55;;;;;;;19.44;51.53;100959.59;7398233;19;20532;-69
2022/07/30 06:17:10;;;;;;;7.13;2.75;;;;;;;19.45;51.74;100962.16;7397237;19;20026;-70
2022/07/30 06:19:39;;;;;;;5.03;2.25;;;;;;;19.48;51.51;100971.75;7396217;19;20022;-69
2022/07/30 06:22:07;;;;;;;3.90;2.45;;;;;;;19.51;51.72;100964.47;7395985;19;20035;-69
2022/07/30 06:24:36;;;;;;;7.32;2.25;;;;;;;19.56;51.39;100969.53;7395899;19;20023;-69
2022/07/30 06:27:07;;;;;;;3.88;2.30;;;;;;;19.60;51.30;100967.53;7396067;19;20015;-69
2022/07/30 06:29:36;;;;;;;6.13;2.05;;;;;;;19.63;51.01;100970.06;7396576;19;20022;-69
2022/07/30 06:32:05;;;;;;;5.20;2.30;;;;;;;19.67;51.39;100977.75;7396862;19;20021;-69
2022/07/30 06:34:34;;;;;;;7.88;2.55;;;;;;;19.70;50.76;100972.28;7395586;19;20018;-69
2022/07/30 06:37:09;;;;;;;4.35;2.45;;;;;;;19.74;50.62;100983.63;7396131;19;20015;-69
2022/07/30 06:39:38;;;;;;;2.78;2.28;;;;;;;19.80;50.96;100980.59;7395117;19;20022;-70
2022/07/30 06:42:09;;;;;;;7.47;2.38;;;;;;;19.84;50.57;100987.50;7397258;19;20027;-69
2022/07/30 06:44:37;;;;;;;3.67;2.30;;;;;;;19.89;50.73;100981.94;7396116;19;20039;-69
2022/07/30 06:47:06;;;;;;;5.65;2.53;;;;;;;19.91;50.61;100981.81;7395413;19;20082;-69
2022/07/30 06:49:35;;;;;;;4.43;2.33;;;;;;;19.92;50.55;100984.41;7397379;19;20035;-69
2022/07/30 06:52:04;;;;;;;5.25;2.20;;;;;;;19.95;50.79;100983.34;7396821;19;20502;-69
2022/07/30 06:54:33;;;;;;;4.07;2.25;;;;;;;19.95;50.59;100986.88;7397249;19;20070;-69
2022/07/30 06:57:01;;;;;;;3.55;2.53;;;;;;;19.98;50.92;100993.81;7396088;19;20043;-69
2022/07/30 06:59:32;;;;;;;5.65;2.30;;;;;;;20.04;50.69;100997.94;7394649;19;20024;-69
2022/07/30 07:02:01;;;;;;;7.47;2.13;;;;;;;20.07;50.29;100993.31;7395450;19;20090;-69
2022/07/30 07:04:31;;;;;;;6.57;2.42;;;;;;;20.14;50.43;100996.47;7396750;19;20014;-69
2022/07/30 07:06:59;;;;;;;3.95;2.40;;;;;;;20.20;50.32;100996.13;7395369;19;20508;-69
2022/07/30 07:09:27;;;;;;;5.65;2.90;;;;;;;20.24;50.35;100994.97;7396265;19;20682;-69
2022/07/30 07:11:56;;;;;;;3.88;2.10;;;;;;;20.27;50.17;101000.16;7393594;19;20011;-69
2022/07/30 07:14:25;;;;;;;4.20;2.58;;;;;;;20.28;49.96;100996.53;7397598;19;20053;-69
2022/07/30 07:16:56;;;;;;;9.02;2.35;;;;;;;20.32;50.16;100999.84;7394932;19;20042;-69
2022/07/30 07:19:25;;;;;;;7.63;2.05;;;;;;;20.34;49.66;100997.97;7394405;19;20383;-69
2022/07/30 07:21:54;;;;;;;5.93;2.60;;;;;;;20.38;49.98;100994.16;7395372;19;20484;-69
2022/07/30 07:24:22;;;;;;;3.65;2.15;;;;;;;20.43;49.47;100999.22;7395721;19;20032;-69
2022/07/30 07:26:51;;;;;;;4.57;2.45;;;;;;;20.44;49.36;101000.97;7394129;19;20026;-69
2022/07/30 07:29:19;;;;;;;7.28;2.40;;;;;;;20.45;49.27;100994.69;7395014;19;20359;-69
2022/07/30 07:31:48;;;;;;;2.33;1.90;;;;;;;20.45;49.27;100998.19;7395219;19;20123;-69
2022/07/30 07:34:19;;;;;;;12.02;1.80;;;;;;;20.43;49.40;100994.75;7395144;19;20032;-69
2022/07/30 07:36:48;;;;;;;5.30;2.60;;;;;;;20.43;49.55;100999.22;7393336;19;20022;-68
2022/07/30 07:39:16;;;;;;;5.10;2.97;;;;;;;20.40;49.31;101002.09;7392033;19;20031;-69
2022/07/30 07:41:45;;;;;;;4.78;2.45;;;;;;;20.39;49.54;101000.38;7392310;19;20383;-69
2022/07/30 07:44:13;;;;;;;7.30;2.70;;;;;;;20.39;49.51;101009.22;7394726;19;20347;-69
2022/07/30 07:46:42;;;;;;;5.45;2.00;;;;;;;20.39;49.29;100997.72;7393236;19;20517;-68
2022/07/30 07:49:10;;;;;;;6.18;2.60;;;;;;;20.49;49.26;101007.72;7393341;19;20014;-68
2022/07/30 07:51:41;;;;;;;4.78;2.10;;;;;;;20.55;49.47;101009.16;7393820;19;20018;-68
2022/07/30 07:54:10;;;;;;;5.03;2.03;;;;;;;20.60;49.24;101009.75;7395322;19;20011;-69
2022/07/30 07:56:38;;;;;;;10.02;2.15;;;;;;;20.64;49.38;101010.44;7394386;19;20026;-70
2022/07/30 07:59:07;;;;;;;3.90;1.95;;;;;;;20.68;49.31;101006.63;7393880;19;20082;-67
2022/07/30 08:01:35;;;;;;;6.18;2.05;;;;;;;20.76;49.26;101001.72;7395088;19;20038;-68
2022/07/30 08:04:04;;;;;;;5.20;2.22;;;;;;;20.85;48.94;101002.09;7395005;19;20022;-68
2022/07/30 08:06:32;;;;;;;4.18;2.53;;;;;;;20.91;49.19;100997.25;7393759;19;20022;-70
2022/07/30 08:09:04;;;;;;;5.85;2.28;;;;;;;20.97;48.74;100996.88;7394772;19;20032;-69
2022/07/30 08:11:32;;;;;;;4.10;2.20;;;;;;;21.04;48.81;100996.50;7392801;19;20018;-69
2022/07/30 08:14:01;;;;;;;7.45;2.20;;;;;;;21.11;48.77;101000.50;7392583;19;20070;-70
2022/07/30 08:16:29;;;;;;;5.65;2.10;;;;;;;21.19;48.32;101003.53;7393673;19;20041;-69
2022/07/30 08:18:58;;;;;;;8.20;3.13;;;;;;;21.27;47.97;100995.94;7393393;19;20032;-68
2022/07/30 08:21:26;;;;;;;4.15;2.33;;;;;;;21.35;48.05;101000.78;7392254;19;20022;-69
2022/07/30 08:23:55;;;;;;;6.45;2.67;;;;;;;21.42;47.93;100994.09;7394106;19;20015;-69
2022/07/30 08:26:26;;;;;;;4.50;2.47;;;;;;;21.48;48.11;100995.50;7391663;19;20018;-70
2022/07/30 08:28:54;;;;;;;6.47;2.65;;;;;;;21.52;48.06;101001.50;7393460;19;20074;-69
2022/07/30 08:31:23;;;;;;;5.93;2.08;;;;;;;21.55;47.73;100986.19;7394162;19;20031;-69
2022/07/30 08:33:51;;;;;;;4.57;2.55;;;;;;;21.62;47.39;100990.19;7393453;19;20022;-69
2022/07/30 08:36:20;;;;;;;7.20;2.33;;;;;;;21.66;47.73;100987.31;7391493;19;20031;-69
2022/07/30 08:38:48;;;;;;;6.13;2.50;;;;;;;21.66;47.46;100989.97;7391334;19;20107;-71
2022/07/30 08:41:26;;;;;;;3.40;1.95;;;;;;;21.64;47.47;100982.91;7393618;19;20039;-70
2022/07/30 08:44:01;;;;;;;5.20;2.10;;;;;;;21.67;47.30;100981.03;7393644;19;20074;-70
2022/07/30 08:46:34;;;;;;;3.15;2.25;;;;;;;21.72;47.35;100986.91;7393551;19;20022;-70
2022/07/30 08:49:04;;;;;;;4.10;2.38;;;;;;;21.75;47.17;100990.25;7394179;19;20010;-68
2022/07/30 08:51:32;;;;;;;3.65;2.42;;;;;;;21.82;47.23;100997.88;7393701;19;20015;-69
2022/07/30 08:54:08;;;;;;;3.03;2.20;;;;;;;21.87;47.10;100993.06;7397093;19;20109;-70
2022/07/30 08:56:36;;;;;;;5.63;2.10;;;;;;;21.93;47.37;100998.03;7397766;19;20510;-70
2022/07/30 08:59:07;;;;;;;5.38;2.15;;;;;;;21.96;46.84;100995.13;7399514;19;20483;-70
2022/07/30 09:01:36;;;;;;;3.67;2.38;;;;;;;21.97;47.19;101003.03;7401103;19;20022;-69
2022/07/30 09:04:05;;;;;;;3.50;2.15;;;;;;;21.98;46.62;100998.56;7397875;19;20018;-70
2022/07/30 09:06:34;;;;;;;4.40;1.98;;;;;;;21.96;46.42;100995.13;7399559;19;20098;-70
2022/07/30 09:09:02;;;;;;;6.35;2.25;;;;;;;21.93;46.63;100990.84;7397793;19;20019;-70
2022/07/30 09:11:31;;;;;;;4.97;2.03;;;;;;;21.90;46.53;100996.41;7397581;19;20035;-70
2022/07/30 09:14:12;;;;;;;4.22;1.80;;;;;;;21.90;46.45;100990.19;7397628;19;20091;-70
2022/07/30 09:16:41;;;;;;;4.57;1.88;;;;;;;21.93;46.53;100993.53;7399681;19;20089;-70
2022/07/30 09:19:15;;;;;;;6.13;1.95;;;;;;;21.96;46.00;100987.13;7397205;19;20031;-70
2022/07/30 09:21:44;;;;;;;7.80;2.88;;;;;;;22.01;46.19;100987.66;7397541;19;20023;-70
2022/07/30 09:24:14;;;;;;;7.72;2.67;;;;;;;22.06;45.98;100985.53;7399380;19;20078;-70
2022/07/30 09:26:57;;;;;;;5.75;1.90;;;;;;;22.11;45.70;100985.25;7396180;19;20545;-70
2022/07/30 09:29:30;;;;;;;6.47;2.03;;;;;;;22.12;45.65;100990.47;7396951;19;20018;-68
2022/07/30 09:32:01;;;;;;;4.13;2.05;;;;;;;22.18;45.76;100986.56;7397733;19;20035;-70
2022/07/30 09:34:31;;;;;;;7.05;2.00;;;;;;;22.21;45.65;100989.00;7399638;19;20022;-70
2022/07/30 09:37:02;;;;;;;8.38;2.17;;;;;;;22.23;45.56;100984.44;7397302;19;20035;-69
2022/07/30 09:39:32;;;;;;;4.63;1.88;;;;;;;22.26;45.38;100978.88;7397468;19;20010;-70
2022/07/30 09:42:02;;;;;;;6.13;2.35;;;;;;;22.27;45.72;100985.94;7399067;19;20018;-69
2022/07/30 09:44:33;;;;;;;5.88;2.15;;;;;;;22.33;45.40;100971.31;7399408;19;20089;-70
2022/07/30 09:47:01;;;;;;;10.15;2.03;;;;;;;22.42;45.18;100973.38;7396864;19;20085;-69
2022/07/30 09:49:31;;;;;;;8.00;2.50;;;;;;;22.47;45.50;100970.41;7395962;19;20010;-69
2022/07/30 09:52:00;;;;;;;3.78;1.73;;;;;;;22.55;45.40;100973.38;7398581;19;20022;-69
2022/07/30 09:54:47;;;;;;;6.25;2.10;;;;;;;22.61;45.25;100980.16;7398816;19;20027;-69
2022/07/30 09:57:16;;;;;;;6.05;2.17;;;;;;;22.67;45.11;100978.84;7397427;19;20026;-69
2022/07/30 09:59:47;;;;;;;5.10;1.73;;;;;;;22.77;45.14;100963.88;7397682;19;20078;-68
2022/07/30 10:02:16;;;;;;;7.22;1.90;;;;;;;22.88;44.83;100973.84;7397019;19;20035;-68
2022/07/30 10:04:45;;;;;;;2.13;1.73;;;;;;;22.96;45.27;100966.09;7398443;19;20553;-73
2022/07/30 10:07:20;;;;;;;3.70;1.58;;;;;;;23.07;44.69;100976.06;7397113;19;20502;-69
2022/07/30 10:09:50;;;;;;;3.97;1.38;;;;;;;23.18;44.44;100973.50;7397095;19;20015;-70
2022/07/30 10:12:22;;;;;;;5.07;1.85;;;;;;;23.28;44.49;100979.06;7397977;19;20011;-72
2022/07/30 10:14:55;;;;;;;4.07;1.75;;;;;;;23.41;43.93;100976.34;7399438;19;20035;-72
2022/07/30 10:17:24;;;;;;;3.05;1.50;;;;;;;23.51;43.73;100976.56;7397189;19;20035;-69
2022/07/30 10:19:53;;;;;;;5.95;1.83;;;;;;;23.59;43.43;100979.50;7395388;19;20018;-72
2022/07/30 10:22:21;;;;;;;5.18;1.80;;;;;;;23.64;43.16;100980.03;7395778;19;20027;-69
2022/07/30 10:24:51;;;;;;;4.13;1.70;;;;;;;23.74;43.34;100983.72;7397818;19;20588;-68
2022/07/30 10:27:21;;;;;;;8.25;1.77;;;;;;;23.82;43.01;100983.19;7395475;19;20026;-67
2022/07/30 10:29:49;;;;;;;3.20;1.35;;;;;;;23.89;43.04;100983.56;7395082;19;20426;-68
2022/07/30 10:32:20;;;;;;;4.70;1.70;;;;;;;23.95;42.60;100977.81;7397196;19;20356;-68
2022/07/30 10:34:49;;;;;;;6.90;1.65;;;;;;;24.03;42.51;100979.91;7395494;19;20514;-69
2022/07/30 10:37:18;;;;;;;10.20;2.40;;;;;;;24.11;42.06;100982.84;7394054;19;20022;-69
2022/07/30 10:39:54;;;;;;;4.63;1.67;;;;;;;24.17;42.05;100985.06;7394994;19;20383;-67
2022/07/30 10:42:38;;;;;;;4.55;2.00;;;;;;;24.16;42.02;100980.69;7395914;19;20090;-68
2022/07/30 10:45:25;;;;;;;2.28;1.90;;;;;;;24.17;41.44;100981.53;7396193;19;20023;-68
2022/07/30 10:47:58;;;;;;;7.72;1.95;;;;;;;24.19;41.85;100974.25;7395339;19;20015;-68
2022/07/30 10:50:28;;;;;;;5.87;1.67;;;;;;;24.19;41.73;100969.72;7397034;19;20011;-69
2022/07/30 10:52:59;;;;;;;3.85;1.73;;;;;;;24.27;42.02;100973.66;7395448;19;20022;-68
2022/07/30 10:55:30;;;;;;;4.00;1.60;;;;;;;24.36;41.55;100972.94;7396751;19;20019;-69
2022/07/30 10:58:04;;;;;;;4.70;1.50;;;;;;;24.46;41.46;100979.31;7395066;19;20019;-68
2022/07/30 11:00:34;;;;;;;7.05;1.40;;;;;;;24.55;41.29;100973.25;7395706;19;20014;-71
2022/07/30 11:03:25;;;;;;;3.65;1.60;;;;;;;24.69;41.41;100987.44;7395115;19;20018;-68
2022/07/30 11:06:14;;;;;;;4.88;1.67;;;;;;;24.82;40.83;100972.09;7396976;19;20018;-68
2022/07/30 11:08:47;;;;;;;5.50;1.60;;;;;;;24.94;40.92;100972.09;7396183;19;20018;-68
2022/07/30 11:11:46;;;;;;;5.78;1.40;;;;;;;25.09;40.24;100967.34;7395574;19;20019;-68
2022/07/30 11:14:15;;;;;;;3.50;1.02;;;;;;;25.20;40.29;100975.41;7394326;19;20018;-68
2022/07/30 11:17:02;;;;;;;5.20;1.35;;;;;;;25.33;39.66;100964.53;7392611;19;20484;-67
2022/07/30 11:19:33;;;;;;;3.28;1.15;;;;;;;25.43;38.99;100959.31;7395267;19;20019;-68
2022/07/30 11:22:30;;;;;;;3.03;1.40;;;;;;;25.55;38.29;100962.81;7394925;19;20366;-68
2022/07/30 11:25:00;;;;;;;2.15;1.45;;;;;;;25.66;38.65;100965.47;7393325;19;20018;-68
2022/07/30 11:27:40;;;;;;;5.43;1.45;;;;;;;25.76;38.52;100958.34;7394055;19;20496;-68
2022/07/30 11:30:41;;;;;;;6.50;1.30;;;;;;;25.84;37.77;100966.63;7394041;19;20023;-68
2022/07/30 11:33:26;;;;;;;4.90;1.33;;;;;;;25.93;37.67;100959.63;7396043;19;20020;-66
2022/07/30 11:36:18;;;;;;;3.33;1.30;;;;;;;26.02;37.66;100964.22;7393417;19;20025;-67
2022/07/30 11:38:57;;;;;;;4.00;1.52;;;;;;;26.12;37.20;100964.34;7392835;19;20098;-68
2022/07/30 11:41:26;;;;;;;2.70;1.75;;;;;;;26.26;37.41;100967.69;7393209;19;20023;-68
2022/07/30 11:44:24;;;;;;;4.25;1.50;;;;;;;26.39;37.16;100968.34;7392840;19;20035;-67